createdAt,value
2018-03-24T00:00:48.052Z,41.03
2018-03-24T00:03:15.514Z,41.00
2018-03-24T00:05:44.473Z,39.40
2018-03-24T00:08:11.934Z,41.03
2018-03-24T00:10:39.399Z,41.90
2018-03-24T00:13:07.634Z,40.63
2018-03-24T00:15:35.090Z,41.30
2018-03-24T00:18:03.323Z,42.77
2018-03-24T00:20:30.822Z,42.27
2018-03-24T00:22:59.060Z,40.97
2018-03-24T00:25:27.292Z,42.37
2018-03-24T00:27:54.734Z,41.73
2018-03-24T00:30:22.213Z,41.33
2018-03-24T00:32:49.713Z,38.50
2018-03-24T00:35:17.445Z,40.07
2018-03-24T00:37:44.917Z,38.37
2018-03-24T00:40:12.390Z,39.30
2018-03-24T00:42:39.850Z,39.30
2018-03-24T00:45:07.326Z,40.00
2018-03-24T00:47:34.810Z,41.83
2018-03-24T00:50:02.271Z,40.70
2018-03-24T00:52:29.750Z,40.63
2018-03-24T00:54:57.187Z,36.73
2018-03-24T00:57:24.659Z,42.03
2018-03-24T00:59:52.114Z,39.93
2018-03-24T01:02:19.573Z,41.63
2018-03-24T01:04:47.034Z,40.43
2018-03-24T01:07:14.495Z,40.63
2018-03-24T01:09:41.953Z,38.73
2018-03-24T01:12:10.168Z,39.83
2018-03-24T01:14:37.635Z,41.60
2018-03-24T01:17:05.854Z,39.57
2018-03-24T01:19:33.342Z,39.50
2018-03-24T01:22:00.798Z,39.93
2018-03-24T01:24:28.253Z,39.00
2018-03-24T01:26:55.730Z,39.07
2018-03-24T01:29:23.221Z,40.80
2018-03-24T01:31:50.682Z,41.13
2018-03-24T01:34:18.918Z,41.63
2018-03-24T01:36:46.387Z,40.83
2018-03-24T01:39:13.841Z,42.97
2018-03-24T01:41:41.321Z,39.83
2018-03-24T01:44:09.550Z,39.47
2018-03-24T01:46:37.006Z,40.20
2018-03-24T01:49:04.470Z,39.97
2018-03-24T01:51:31.923Z,38.50
2018-03-24T01:53:59.390Z,42.03
2018-03-24T01:56:26.854Z,39.80
2018-03-24T01:58:54.317Z,39.80
2018-03-24T02:01:21.794Z,38.50
2018-03-24T02:03:49.249Z,41.30
2018-03-24T02:06:17.490Z,39.40
2018-03-24T02:08:45.711Z,38.67
2018-03-24T02:11:13.190Z,37.67
2018-03-24T02:13:40.685Z,38.80
2018-03-24T02:16:08.133Z,38.80
2018-03-24T02:18:35.590Z,39.10
2018-03-24T02:21:14.777Z,39.47
2018-03-24T02:23:42.238Z,38.97
2018-03-24T02:26:09.702Z,39.50
2018-03-24T02:28:37.953Z,37.17
2018-03-24T02:31:06.166Z,39.47
2018-03-24T02:33:33.639Z,38.33
2018-03-24T02:36:01.082Z,39.10
2018-03-24T02:38:28.559Z,39.87
2018-03-24T02:40:56.023Z,38.87
2018-03-24T02:43:24.244Z,39.30
2018-03-24T02:45:51.812Z,39.00
2018-03-24T02:48:19.273Z,41.33
2018-03-24T02:50:46.716Z,38.33
2018-03-24T02:53:14.178Z,40.13
2018-03-24T02:55:41.629Z,41.10
2018-03-24T02:58:09.865Z,41.80
2018-03-24T03:00:38.154Z,38.30
2018-03-24T03:03:07.125Z,39.80
2018-03-24T03:05:34.586Z,40.10
2018-03-24T03:08:02.810Z,40.47
2018-03-24T03:10:30.264Z,40.30
2018-03-24T03:12:57.721Z,40.70
2018-03-24T03:15:25.173Z,40.30
2018-03-24T03:17:53.394Z,42.77
2018-03-24T03:20:20.857Z,40.40
2018-03-24T03:22:48.341Z,41.10
2018-03-24T03:25:15.798Z,41.00
2018-03-24T03:27:43.258Z,39.43
2018-03-24T03:33:28.833Z,40.73
2018-03-24T03:35:56.291Z,38.57
2018-03-24T03:38:23.769Z,40.83
2018-03-24T03:40:51.230Z,42.00
2018-03-24T03:43:18.701Z,40.30
2018-03-24T03:45:46.920Z,41.17
2018-03-24T03:48:14.374Z,37.53
2018-03-24T03:50:42.605Z,40.50
2018-03-24T03:53:10.822Z,41.50
2018-03-24T03:55:38.302Z,41.57
2018-03-24T03:58:05.762Z,41.10
2018-03-24T04:00:33.221Z,39.93
2018-03-24T04:03:00.678Z,42.23
2018-03-24T04:05:28.133Z,42.17
2018-03-24T04:07:56.357Z,39.97
2018-03-24T04:10:24.649Z,39.20
2018-03-24T04:12:52.097Z,39.87
2018-03-24T04:15:20.334Z,38.87
2018-03-24T04:17:47.793Z,39.73
2018-03-24T04:20:15.265Z,40.20
2018-03-24T04:22:43.498Z,39.17
2018-03-24T04:25:10.965Z,37.63
2018-03-24T04:27:38.422Z,39.27
2018-03-24T04:30:05.890Z,40.07
2018-03-24T04:32:33.361Z,39.40
2018-03-24T04:35:00.820Z,38.27
2018-03-24T04:37:28.291Z,38.20
2018-03-24T04:39:56.529Z,37.40
2018-03-24T04:42:23.990Z,38.13
2018-03-24T04:44:52.222Z,39.30
2018-03-24T04:47:19.674Z,38.33
2018-03-24T04:49:47.128Z,39.67
2018-03-24T04:52:15.362Z,38.50
2018-03-24T04:54:42.822Z,38.90
2018-03-24T04:57:10.285Z,39.07
2018-03-24T04:59:37.741Z,41.20
2018-03-24T05:02:05.205Z,42.57
2018-03-24T05:04:34.181Z,42.13
2018-03-24T05:07:01.673Z,43.13
2018-03-24T05:09:29.900Z,40.47
2018-03-24T05:11:57.388Z,40.60
2018-03-24T05:14:24.871Z,40.83
2018-03-24T05:16:53.096Z,38.63
2018-03-24T05:19:20.553Z,36.53
2018-03-24T05:21:48.022Z,38.03
2018-03-24T05:24:15.478Z,38.10
2018-03-24T05:26:42.938Z,38.47
2018-03-24T05:29:10.397Z,38.07
2018-03-24T05:31:38.617Z,34.80
2018-03-24T05:34:06.078Z,39.50
2018-03-24T05:36:33.551Z,37.77
2018-03-24T05:39:01.779Z,39.13
2018-03-24T05:41:29.229Z,38.30
2018-03-24T05:43:56.702Z,37.13
2018-03-24T05:46:24.154Z,35.80
2018-03-24T05:48:51.623Z,38.07
2018-03-24T05:51:19.078Z,38.70
2018-03-24T05:53:47.306Z,37.27
2018-03-24T05:56:14.790Z,35.97
2018-03-24T05:58:42.248Z,36.47
2018-03-24T06:01:09.701Z,37.37
2018-03-24T06:03:37.173Z,37.47
2018-03-24T06:06:05.414Z,37.33
2018-03-24T06:08:32.877Z,37.53
2018-03-24T06:11:00.350Z,38.27
2018-03-24T06:13:29.322Z,38.53
2018-03-24T06:15:56.894Z,39.10
2018-03-24T06:18:25.133Z,38.13
2018-03-24T06:20:52.653Z,37.30
2018-03-24T06:23:20.890Z,38.03
2018-03-24T06:25:48.354Z,40.13
2018-03-24T06:28:16.582Z,36.30
2018-03-24T06:30:45.713Z,37.17
2018-03-24T06:33:13.220Z,37.33
2018-03-24T06:35:40.690Z,37.73
2018-03-24T06:38:08.177Z,38.17
2018-03-24T06:40:35.613Z,38.17
2018-03-24T06:43:03.069Z,37.27
2018-03-24T06:45:31.295Z,36.00
2018-03-24T06:47:58.761Z,37.30
2018-03-24T06:50:26.222Z,37.80
2018-03-24T06:52:53.706Z,37.37
2018-03-24T06:55:22.582Z,36.40
2018-03-24T06:57:51.410Z,36.67
2018-03-24T07:00:18.859Z,36.60
2018-03-24T07:02:46.327Z,37.17
2018-03-24T07:05:13.806Z,33.60
2018-03-24T07:07:41.294Z,33.23
2018-03-24T07:10:08.725Z,32.87
2018-03-24T07:12:36.190Z,33.10
2018-03-24T07:15:03.658Z,31.70
2018-03-24T07:17:31.130Z,33.03
2018-03-24T07:19:58.596Z,32.63
2018-03-24T07:22:26.821Z,30.77
2018-03-24T07:24:55.046Z,30.00
2018-03-24T07:27:23.272Z,29.70
2018-03-24T07:29:50.755Z,28.90
2018-03-24T07:32:18.205Z,29.20
2018-03-24T07:34:46.468Z,28.33
2018-03-24T07:37:13.925Z,30.00
2018-03-24T07:39:41.394Z,28.27
2018-03-24T07:42:08.858Z,27.00
2018-03-24T07:44:36.330Z,26.80
2018-03-24T07:47:03.785Z,27.70
2018-03-24T07:49:32.350Z,26.40
2018-03-24T07:51:59.814Z,26.10
2018-03-24T07:54:27.289Z,26.30
2018-03-24T07:56:54.741Z,26.37
2018-03-24T07:59:22.211Z,25.63
2018-03-24T08:01:49.666Z,25.97
2018-03-24T08:04:17.182Z,25.43
2018-03-24T08:06:45.359Z,24.73
2018-03-24T08:09:12.831Z,24.87
2018-03-24T08:11:40.291Z,25.00
2018-03-24T08:14:07.762Z,24.47
2018-03-24T08:16:35.222Z,25.10
2018-03-24T08:19:03.457Z,26.27
2018-03-24T08:21:30.931Z,24.30
2018-03-24T08:23:58.397Z,25.40
2018-03-24T08:26:25.871Z,25.30
2018-03-24T08:28:54.086Z,27.00
2018-03-24T08:31:21.564Z,27.13
2018-03-24T08:33:49.056Z,25.23
2018-03-24T08:36:16.482Z,25.30
2018-03-24T08:38:43.937Z,26.17
2018-03-24T08:41:11.422Z,27.83
2018-03-24T08:43:44.644Z,28.40
2018-03-24T08:46:12.881Z,30.47
2018-03-24T08:48:40.341Z,31.60
2018-03-24T08:51:07.821Z,31.47
2018-03-24T08:53:35.290Z,30.80
2018-03-24T08:56:03.534Z,29.50
2018-03-24T08:58:31.002Z,31.60
2018-03-24T09:00:58.469Z,30.93
2018-03-24T09:03:25.957Z,30.50
2018-03-24T09:05:53.387Z,29.80
2018-03-24T09:08:20.841Z,27.90
2018-03-24T09:10:48.298Z,25.43
2018-03-24T09:13:15.759Z,27.57
2018-03-24T09:15:43.217Z,26.97
2018-03-24T09:18:11.441Z,26.10
2018-03-24T09:20:38.901Z,26.03
2018-03-24T09:23:06.361Z,26.20
2018-03-24T09:25:34.605Z,26.73
2018-03-24T09:28:02.137Z,26.17
2018-03-24T09:30:29.550Z,26.07
2018-03-24T09:32:57.017Z,25.07
2018-03-24T09:35:24.474Z,27.73
2018-03-24T09:37:51.940Z,25.20
2018-03-24T09:40:19.402Z,26.63
2018-03-24T09:42:46.882Z,26.67
2018-03-24T09:45:14.338Z,26.30
2018-03-24T09:47:41.797Z,27.43
2018-03-24T09:50:09.254Z,28.20
2018-03-24T09:52:38.221Z,27.53
2018-03-24T09:55:05.677Z,25.93
2018-03-24T09:57:33.217Z,31.77
2018-03-24T10:00:00.673Z,29.67
2018-03-24T10:02:28.132Z,29.00
2018-03-24T10:04:55.585Z,27.40
2018-03-24T10:07:23.044Z,28.57
2018-03-24T10:09:50.501Z,29.30
2018-03-24T10:12:17.977Z,27.77
2018-03-24T10:14:45.432Z,28.97
2018-03-24T10:17:12.901Z,29.60
2018-03-24T10:19:41.113Z,28.90
2018-03-24T10:22:21.310Z,29.67
2018-03-24T10:24:48.762Z,29.67
2018-03-24T10:27:16.233Z,30.00
2018-03-24T10:29:43.702Z,30.10
2018-03-24T10:32:11.169Z,31.00
2018-03-24T10:34:38.639Z,29.70
2018-03-24T10:37:06.093Z,30.10
2018-03-24T10:39:33.553Z,29.30
2018-03-24T10:42:01.012Z,28.00
2018-03-24T10:44:29.238Z,26.90
2018-03-24T10:46:56.722Z,29.17
2018-03-24T10:49:24.190Z,28.47
2018-03-24T10:51:51.665Z,29.27
2018-03-24T10:54:19.125Z,25.93
2018-03-24T10:56:47.359Z,28.13
2018-03-24T10:59:14.825Z,27.53
2018-03-24T11:01:42.281Z,26.27
2018-03-24T11:04:09.799Z,27.23
2018-03-24T11:06:38.002Z,27.83
2018-03-24T11:09:05.476Z,26.50
2018-03-24T11:11:32.934Z,25.07
2018-03-24T11:14:00.410Z,26.63
2018-03-24T11:16:28.635Z,25.87
2018-03-24T11:18:56.110Z,25.90
2018-03-24T11:21:23.577Z,26.80
2018-03-24T11:23:51.053Z,25.23
2018-03-24T11:26:18.501Z,25.27
2018-03-24T11:28:45.969Z,25.17
2018-03-24T11:31:13.425Z,25.53
2018-03-24T11:33:40.887Z,24.00
2018-03-24T11:36:08.342Z,24.13
2018-03-24T11:38:35.798Z,24.40
2018-03-24T11:41:03.257Z,19.97
2018-03-24T11:43:30.729Z,19.80
2018-03-24T11:45:58.973Z,21.13
2018-03-24T11:48:27.209Z,19.37
2018-03-24T11:50:54.672Z,19.73
2018-03-24T11:53:27.937Z,19.03
2018-03-24T11:55:56.158Z,18.27
2018-03-24T11:58:23.629Z,17.57
2018-03-24T12:00:51.845Z,16.57
2018-03-24T12:03:20.093Z,18.00
2018-03-24T12:05:47.554Z,16.87
2018-03-24T12:08:15.028Z,14.80
2018-03-24T12:10:42.544Z,15.03
2018-03-24T12:13:10.032Z,14.00
2018-03-24T12:15:37.490Z,13.70
2018-03-24T12:18:04.955Z,13.10
2018-03-24T12:20:33.194Z,12.53
2018-03-24T12:23:00.649Z,11.70
2018-03-24T12:25:28.134Z,11.40
2018-03-24T12:27:55.583Z,12.57
2018-03-24T12:30:23.049Z,11.73
2018-03-24T12:32:50.509Z,11.20
2018-03-24T12:35:18.003Z,10.53
2018-03-24T12:37:45.466Z,10.87
2018-03-24T12:40:13.692Z,11.00
2018-03-24T12:42:41.142Z,11.00
2018-03-24T12:45:08.601Z,10.53
2018-03-24T12:47:36.054Z,10.67
2018-03-24T12:50:03.525Z,10.10
2018-03-24T12:52:31.008Z,10.30
2018-03-24T12:54:59.250Z,10.30
2018-03-24T12:57:26.709Z,9.87
2018-03-24T12:59:54.161Z,9.23
2018-03-24T13:02:21.632Z,9.10
2018-03-24T13:04:49.083Z,9.53
2018-03-24T13:07:16.600Z,9.00
2018-03-24T13:09:44.058Z,9.20
2018-03-24T13:12:12.397Z,8.63
2018-03-24T13:14:39.870Z,8.70
2018-03-24T13:17:07.317Z,9.53
2018-03-24T13:19:34.778Z,8.40
2018-03-24T13:22:02.273Z,8.97
2018-03-24T13:24:29.735Z,8.67
2018-03-24T13:26:57.201Z,9.47
2018-03-24T13:29:24.645Z,8.90
2018-03-24T13:31:52.116Z,8.27
2018-03-24T13:34:19.583Z,8.33
2018-03-24T13:36:47.062Z,9.20
2018-03-24T13:39:14.527Z,8.03
2018-03-24T13:41:41.978Z,9.20
2018-03-24T13:44:09.437Z,9.37
2018-03-24T13:46:36.897Z,9.10
2018-03-24T13:49:04.347Z,8.60
2018-03-24T13:51:31.805Z,9.10
2018-03-24T13:53:59.266Z,9.10
2018-03-24T13:56:26.721Z,9.80
2018-03-24T13:58:54.177Z,8.80
2018-03-24T14:01:21.633Z,9.80
2018-03-24T14:03:49.854Z,9.53
2018-03-24T14:06:18.077Z,9.57
2018-03-24T14:08:45.537Z,9.47
2018-03-24T14:11:12.981Z,9.33
2018-03-24T14:13:40.437Z,9.47
2018-03-24T14:16:07.915Z,9.67
2018-03-24T14:18:35.369Z,9.47
2018-03-24T14:21:02.820Z,9.67
2018-03-24T14:23:30.281Z,9.60
2018-03-24T14:25:57.733Z,9.87
2018-03-24T14:28:25.197Z,9.50
2018-03-24T14:30:52.645Z,9.83
2018-03-24T14:33:20.117Z,9.70
2018-03-24T14:35:47.565Z,9.27
2018-03-24T14:38:15.790Z,9.70
2018-03-24T14:40:44.029Z,10.23
2018-03-24T14:43:11.489Z,9.70
2018-03-24T14:45:38.937Z,9.27
2018-03-24T14:48:06.399Z,9.57
2018-03-24T14:50:34.629Z,9.23
2018-03-24T14:53:03.037Z,8.97
2018-03-24T14:55:30.496Z,17.23
2018-03-24T14:57:57.980Z,23.77
2018-03-24T15:00:25.438Z,23.53
2018-03-24T15:02:52.901Z,24.30
2018-03-24T15:05:21.134Z,25.20
2018-03-24T15:07:48.601Z,25.20
2018-03-24T15:10:16.058Z,25.70
2018-03-24T15:12:43.509Z,25.10
2018-03-24T15:15:10.977Z,24.97
2018-03-24T15:17:38.445Z,23.37
2018-03-24T15:20:05.913Z,22.13
2018-03-24T15:22:33.377Z,24.43
2018-03-24T15:25:00.895Z,24.50
2018-03-24T15:27:29.077Z,24.07
2018-03-24T15:30:09.233Z,24.50
2018-03-24T15:32:48.465Z,24.33
2018-03-24T15:35:27.852Z,25.43
2018-03-24T15:37:55.316Z,25.80
2018-03-24T15:40:22.799Z,26.60
2018-03-24T15:42:51.172Z,25.57
2018-03-24T15:45:18.655Z,25.87
2018-03-24T15:47:46.113Z,25.30
2018-03-24T15:50:13.593Z,26.93
2018-03-24T15:52:41.045Z,28.83
2018-03-24T15:55:08.517Z,28.67
2018-03-24T15:57:35.974Z,27.87
2018-03-24T16:00:03.443Z,28.23
2018-03-24T16:02:31.677Z,27.27
2018-03-24T16:04:59.149Z,26.90
2018-03-24T16:07:26.606Z,25.90
2018-03-24T16:09:54.070Z,27.10
2018-03-24T16:12:21.522Z,26.43
2018-03-24T16:14:48.982Z,27.53
2018-03-24T16:17:16.438Z,26.63
2018-03-24T16:19:43.946Z,25.30
2018-03-24T16:22:12.162Z,27.00
2018-03-24T16:24:40.383Z,25.50
2018-03-24T16:27:07.904Z,25.97
2018-03-24T16:29:35.362Z,21.13
2018-03-24T16:32:02.849Z,21.27
2018-03-24T16:34:31.079Z,18.63
2018-03-24T16:36:58.557Z,18.97
2018-03-24T16:39:26.013Z,17.77
2018-03-24T16:41:53.490Z,19.33
2018-03-24T16:44:20.933Z,17.10
2018-03-24T16:46:48.397Z,17.60
2018-03-24T16:49:15.875Z,17.70
2018-03-24T16:51:44.096Z,20.53
2018-03-24T16:54:11.577Z,19.80
2018-03-24T16:56:39.737Z,19.57
2018-03-24T16:59:07.186Z,24.30
2018-03-24T17:01:34.646Z,25.17
2018-03-24T17:04:02.096Z,26.37
2018-03-24T17:06:29.558Z,28.43
2018-03-24T17:08:57.014Z,30.50
2018-03-24T17:11:24.474Z,31.93
2018-03-24T17:13:51.929Z,32.40
2018-03-24T17:16:19.393Z,34.00
2018-03-24T17:18:46.850Z,33.40
2018-03-24T17:21:14.334Z,33.50
2018-03-24T17:23:41.804Z,32.70
2018-03-24T17:26:09.266Z,33.23
2018-03-24T17:28:36.727Z,33.43
2018-03-24T17:31:04.945Z,33.00
2018-03-24T17:33:32.413Z,32.50
2018-03-24T17:35:59.861Z,34.93
2018-03-24T17:38:27.326Z,31.33
2018-03-24T17:40:54.785Z,32.37
2018-03-24T17:43:22.251Z,31.60
2018-03-24T17:45:49.706Z,30.30
2018-03-24T17:48:17.208Z,31.67
2018-03-24T17:50:45.385Z,30.70
2018-03-24T17:53:13.618Z,31.20
2018-03-24T17:55:41.126Z,28.53
2018-03-24T17:58:08.555Z,30.00
2018-03-24T18:00:36.035Z,28.93
2018-03-24T18:03:04.270Z,29.30
2018-03-24T18:05:31.724Z,27.87
2018-03-24T18:07:59.190Z,28.40
2018-03-24T18:10:26.643Z,28.87
2018-03-24T18:12:54.865Z,28.67
2018-03-24T18:15:22.313Z,28.10
2018-03-24T18:17:50.568Z,28.30
2018-03-24T18:20:18.041Z,28.20
2018-03-24T18:22:45.494Z,28.33
2018-03-24T18:25:12.986Z,28.00
2018-03-24T18:27:40.442Z,28.53
2018-03-24T18:30:07.955Z,28.80
2018-03-24T18:32:35.426Z,28.50
2018-03-24T18:35:02.880Z,26.93
2018-03-24T18:37:30.338Z,26.90
2018-03-24T18:39:57.793Z,27.53
2018-03-24T18:42:25.253Z,27.57
2018-03-24T18:44:52.710Z,27.67
2018-03-24T18:47:20.166Z,27.53
2018-03-24T18:49:47.629Z,27.40
2018-03-24T18:52:15.089Z,25.23
2018-03-24T18:54:42.537Z,26.87
2018-03-24T18:57:09.993Z,27.10
2018-03-24T18:59:37.445Z,27.53
2018-03-24T19:02:04.909Z,26.37
2018-03-24T19:04:32.366Z,26.10
2018-03-24T19:06:59.821Z,25.20
2018-03-24T19:09:27.290Z,25.30
2018-03-24T19:11:55.518Z,25.40
2018-03-24T19:14:22.981Z,25.07
2018-03-24T19:16:50.437Z,24.50
2018-03-24T19:19:17.906Z,26.23
2018-03-24T19:21:45.358Z,24.40
2018-03-24T19:24:12.833Z,25.00
2018-03-24T19:26:40.277Z,24.27
2018-03-24T19:29:07.770Z,24.93
2018-03-24T19:31:35.225Z,22.67
2018-03-24T19:34:02.694Z,23.10
2018-03-24T19:36:30.941Z,24.10
2018-03-24T19:38:58.591Z,23.23
2018-03-24T19:41:26.900Z,21.93
2018-03-24T19:43:54.334Z,22.70
2018-03-24T19:46:21.797Z,20.40
2018-03-24T19:48:49.257Z,20.70
2018-03-24T19:51:16.726Z,22.10
2018-03-24T19:53:44.181Z,22.30
2018-03-24T19:56:11.641Z,20.83
2018-03-24T19:58:39.149Z,19.90
2018-03-24T20:01:06.614Z,21.37
2018-03-24T20:03:34.073Z,19.63
2018-03-24T20:06:01.553Z,21.70
2018-03-24T20:08:29.018Z,20.30
2018-03-24T20:10:56.489Z,20.67
2018-03-24T20:13:24.712Z,20.93
2018-03-24T20:15:52.173Z,18.47
2018-03-24T20:18:19.630Z,18.93
2018-03-24T20:20:47.081Z,19.40
2018-03-24T20:23:14.549Z,18.83
2018-03-24T20:25:42.016Z,19.03
2018-03-24T20:28:09.513Z,18.87
2018-03-24T20:30:36.968Z,18.50
2018-03-24T20:33:04.435Z,20.67
2018-03-24T20:35:32.682Z,19.87
2018-03-24T20:38:00.901Z,20.50
2018-03-24T20:40:28.365Z,19.83
2018-03-24T20:42:56.741Z,22.30
2018-03-24T20:45:24.198Z,23.10
2018-03-24T20:47:52.426Z,24.90
2018-03-24T20:50:19.906Z,26.57
2018-03-24T20:52:48.129Z,29.80
2018-03-24T20:55:16.381Z,31.40
2018-03-24T20:57:43.837Z,32.43
2018-03-24T21:00:12.065Z,33.47
2018-03-24T21:02:39.522Z,34.53
2018-03-24T21:05:07.771Z,34.87
2018-03-24T21:07:35.234Z,34.53
2018-03-24T21:10:04.610Z,33.97
2018-03-24T21:12:32.077Z,34.17
2018-03-24T21:14:59.576Z,35.77
2018-03-24T21:17:27.058Z,34.60
2018-03-24T21:19:54.509Z,34.20
2018-03-24T21:22:21.994Z,33.77
2018-03-24T21:24:49.448Z,33.60
2018-03-24T21:27:17.677Z,34.23
2018-03-24T21:29:45.161Z,32.67
2018-03-24T21:32:12.633Z,32.63
2018-03-24T21:34:40.866Z,32.77
2018-03-24T21:37:08.328Z,33.30
2018-03-24T21:39:36.550Z,31.83
2018-03-24T21:42:04.728Z,28.90
2018-03-24T21:44:32.184Z,26.90
2018-03-24T21:47:00.465Z,30.10
2018-03-24T21:49:27.913Z,24.10
2018-03-24T21:51:56.144Z,22.40
2018-03-24T21:54:23.601Z,23.80
2018-03-24T21:56:51.081Z,25.80
2018-03-24T21:59:18.546Z,23.57
2018-03-24T22:01:46.005Z,22.90
2018-03-24T22:04:14.230Z,24.10
2018-03-24T22:06:41.695Z,23.47
2018-03-24T22:11:43.870Z,22.47
2018-03-24T22:14:11.429Z,23.63
2018-03-24T22:16:38.927Z,23.00
2018-03-24T22:19:07.141Z,22.60
2018-03-24T22:21:34.640Z,22.43
2018-03-24T22:24:02.133Z,12.90
2018-03-24T22:26:30.361Z,12.30
2018-03-24T22:28:57.829Z,12.17
2018-03-24T22:31:25.278Z,10.97
2018-03-24T22:33:52.761Z,10.63
2018-03-24T22:38:54.169Z,11.07
2018-03-24T22:41:21.626Z,10.03
2018-03-24T22:43:49.102Z,9.77
2018-03-24T22:46:16.562Z,9.70
2018-03-24T22:48:44.037Z,9.27
2018-03-24T22:51:11.498Z,9.10
2018-03-24T22:53:38.953Z,9.67
2018-03-24T22:56:06.413Z,9.20
2018-03-24T22:58:33.870Z,9.70
2018-03-24T23:01:01.332Z,9.23
2018-03-24T23:03:28.786Z,8.17
2018-03-24T23:05:56.253Z,8.23
2018-03-24T23:08:23.723Z,8.60
2018-03-24T23:10:51.169Z,8.20
2018-03-24T23:13:18.627Z,7.50
2018-03-24T23:15:46.081Z,8.00
2018-03-24T23:18:13.566Z,8.87
2018-03-24T23:20:41.800Z,7.80
2018-03-24T23:23:09.269Z,8.07
2018-03-24T23:25:36.738Z,7.80
2018-03-24T23:28:04.214Z,8.50
2018-03-24T23:30:32.442Z,8.00
2018-03-24T23:32:59.905Z,8.13
2018-03-24T23:35:27.378Z,8.00
2018-03-24T23:37:54.837Z,7.73
2018-03-24T23:40:22.290Z,7.90
2018-03-24T23:42:49.758Z,8.20
2018-03-24T23:45:17.217Z,7.33
2018-03-24T23:47:44.673Z,7.87
2018-03-24T23:50:12.131Z,8.77
2018-03-24T23:52:39.585Z,7.60
2018-03-24T23:55:07.045Z,8.17
2018-03-24T23:57:34.509Z,7.90
